Flight Track Log - Related Links

Times and Time Zones

All times are in EDT time to prevent confusion due to time zone crossing. See the TYR844 flight status page for this flight to view local times or setup timezone preferences in your user account.

Time Position Orientation Groundspeed Altitude Reporting Facility
EDT Latitude Longitude Course Direction KTS MPH feet Rate Location/Type
Sun 10:33:00 PM 41.9916 19.4775 343° North  Level Estimated
Sun 10:34:00 PM 42.0877 19.4366 342° North  Level Estimated
Sun 10:35:00 PM 42.1838 19.3955 342° North  Level Estimated
Sun 10:36:00 PM 42.2799 19.3544 342° North  Level Estimated
Sun 10:37:00 PM 42.3759 19.3130 342° North  Level Estimated
Sun 10:38:00 PM 42.4720 19.2716 342° North  Level Estimated
Sun 10:39:00 PM 42.5680 19.2301 342° North  Level Estimated
Sun 10:40:00 PM 42.6640 19.1884 342° North  Level Estimated
Sun 10:41:00 PM 42.7600 19.1465 342° North  Level Estimated
Sun 10:42:00 PM 42.8560 19.1046 342° North  Level Estimated
Sun 10:43:00 PM 42.9519 19.0625 342° North  Level Estimated
Sun 10:44:00 PM 43.0479 19.0203 342° North  Level Estimated
Sun 10:45:00 PM 43.1438 18.9780 342° North  Level Estimated
Sun 10:46:00 PM 43.2397 18.9355 342° North  Level Estimated
Sun 10:47:00 PM 43.3356 18.8929 342° North  Level Estimated
Sun 10:48:00 PM 43.4315 18.8501 342° North  Level Estimated
Sun 10:49:00 PM 43.5274 18.8073 342° North  Level Estimated
Sun 10:50:00 PM 43.6232 18.7642 342° North  Level Estimated
Sun 10:51:00 PM 43.7191 18.7211 342° North  Level Estimated
Sun 10:52:00 PM 43.8149 18.6778 342° North  Level Estimated
Sun 10:53:00 PM 43.9107 18.6344 342° North  Level Estimated
Sun 10:54:00 PM 44.0065 18.5908 342° North  Level Estimated
Sun 10:55:00 PM 44.1022 18.5471 342° North  Level Estimated
Sun 10:56:00 PM 44.1980 18.5033 342° North  Level Estimated
Sun 10:57:00 PM 44.2937 18.4592 342° North  Level Estimated
Sun 10:58:00 PM 44.3895 18.4151 342° North  Level Estimated
Sun 10:59:00 PM 44.4852 18.3708 342° North  Level Estimated
Sun 11:00:00 PM 44.5808 18.3264 342° North  Level Estimated
Sun 11:01:00 PM 44.6765 18.2818 342° North  Level Estimated
Sun 11:02:00 PM 44.7722 18.2371 342° North  Level Estimated
Sun 11:03:00 PM 44.8678 18.1922 342° North  Level Estimated
Sun 11:04:00 PM 44.9634 18.1472 342° North  Level Estimated
Sun 11:05:00 PM 45.0590 18.1020 342° North  Level Estimated
Sun 11:06:00 PM 45.1546 18.0567 342° North  Level Estimated
Sun 11:07:00 PM 45.2502 18.0112 341° North  Level Estimated
Sun 11:08:00 PM 45.3457 17.9656 341° North  Level Estimated
Sun 11:09:00 PM 45.4412 17.9198 341° North  Level Estimated
Sun 11:10:00 PM 45.5367 17.8739 341° North  Level Estimated
Sun 11:11:00 PM 45.6322 17.8278 341° North  Level Estimated
Sun 11:12:00 PM 45.7277 17.7815 341° North  Level Estimated
Sun 11:13:00 PM 45.8232 17.7351 341° North  Level Estimated
Sun 11:14:00 PM 45.9186 17.6886 341° North  Level Estimated
Sun 11:15:00 PM 46.0140 17.6418 341° North  Level Estimated
Sun 11:16:00 PM 46.1094 17.5949 341° North  Level Estimated
Sun 11:17:00 PM 46.2048 17.5479 341° North  Level Estimated
Sun 11:18:00 PM 46.3001 17.5007 341° North  Level Estimated
Sun 11:19:00 PM 46.3955 17.4533 341° North  Level Estimated
Sun 11:20:00 PM 46.4908 17.4058 341° North  Level Estimated
Sun 11:21:00 PM 46.5861 17.3580 341° North  Level Estimated
Sun 11:22:00 PM 46.6814 17.3102 341° North  Level Estimated
Sun 11:23:00 PM 46.7766 17.2621 341° North  Level Estimated
Sun 11:24:00 PM 46.8718 17.2139 341° North  Level Estimated
Sun 11:25:00 PM 46.9671 17.1655 341° North  Level Estimated
Sun 11:26:00 PM 47.0623 17.1169 341° North  Level Estimated
Sun 11:27:00 PM 47.1574 17.0682 341° North  Level Estimated
Sun 11:28:00 PM 47.2526 17.0193 341° North  Level Estimated
Sun 11:29:00 PM 47.3477 16.9702 341° North  Level Estimated
Sun 11:30:00 PM 47.4428 16.9209 341° North  Level Estimated
Sun 11:31:00 PM 47.5379 16.8714 341° North  Level Estimated
Sun 11:32:00 PM 47.6330 16.8218 341° North  Level Estimated
Sun 11:33:00 PM 47.7280 16.7720 341° North  Level Estimated
Sun 11:34:00 PM 47.8231 16.7220 341° North  Level Estimated
Sun 11:35:00 PM 47.9181 16.6718 341° North  Level Estimated
Sun 11:36:00 PM 48.0131 16.6215 340° North  Level Estimated
Sun 11:37:00 PM 48.1080 16.5709 340° North  Level Estimated
Sun 11:38:00 PM 48.1103 16.5697 340° North  Level Estimated
Sun 11:39:00 PM 48.1103 16.5697 146° Southeast  Level Estimated
Sun 11:40:00 PM 48.1103 16.5697 146° Southeast  Level Estimated
Sun 11:41:00 PM 48.1103 16.5697 146° Southeast  Level Estimated
Sun 11:42:00 PM 48.1103 16.5697 146° Southeast  Level Estimated
Sun 11:43:00 PM 48.1103 16.5697 146° Southeast  Level Estimated
Sun 11:44:00 PM 48.1103 16.5697 146° Southeast  Level Estimated
Sun 11:45:00 PM 48.1103 16.5697 146° Southeast  Level Estimated
Sun 11:46:00 PM 48.1103 16.5697 146° Southeast  Level Estimated
Sun 11:47:00 PM 48.1103 16.5697 146° Southeast  Level Estimated
Sun 11:48:00 PM 48.1103 16.5697 146° Southeast  Level Estimated
Sun 11:49:00 PM 48.1103 16.5697 146° Southeast  Level Estimated
Sun 11:50:00 PM 48.1103 16.5697 146° Southeast  Level Estimated
Sun 11:51:00 PM 48.1103 16.5697 146° Southeast  Level Estimated
Sun 11:52:00 PM 48.1103 16.5697 146° Southeast  Level Estimated
Sun 11:53:00 PM 48.1103 16.5697 146° Southeast  Level Estimated

Login

Don't have an account? Register now (free) for customized features, flight alerts, and more!